createdAt,value
2022-08-20T00:01:36.704Z,4.85
2022-08-20T00:04:04.347Z,4.60
2022-08-20T00:06:34.290Z,5.10
2022-08-20T00:09:01.272Z,5.53
2022-08-20T00:11:29.047Z,4.35
2022-08-20T00:14:02.887Z,4.93
2022-08-20T00:16:34.677Z,5.30
2022-08-20T00:19:03.885Z,4.90
2022-08-20T00:21:31.397Z,4.95
2022-08-20T00:23:59.401Z,5.47
2022-08-20T00:26:27.051Z,4.82
2022-08-20T00:28:55.022Z,5.30
2022-08-20T00:31:24.426Z,4.90
2022-08-20T00:33:53.060Z,5.70
2022-08-20T00:36:21.553Z,4.25
2022-08-20T00:38:48.988Z,5.78
2022-08-20T00:41:25.821Z,5.18
2022-08-20T00:44:19.629Z,5.70
2022-08-20T00:46:47.627Z,5.88
2022-08-20T00:49:33.346Z,5.25
2022-08-20T00:52:15.406Z,5.70
2022-08-20T00:54:50.906Z,4.97
2022-08-20T00:57:23.100Z,6.03
2022-08-20T00:59:51.881Z,4.63
2022-08-20T01:02:23.208Z,5.78
2022-08-20T01:04:56.232Z,4.53
2022-08-20T01:07:34.735Z,4.53
2022-08-20T01:10:19.318Z,5.00
2022-08-20T01:12:49.118Z,5.25
2022-08-20T01:15:30.671Z,5.05
2022-08-20T01:18:01.032Z,6.07
2022-08-20T01:20:41.461Z,5.13
2022-08-20T01:23:31.340Z,5.22
2022-08-20T01:26:32.479Z,4.70
2022-08-20T01:29:07.737Z,5.55
2022-08-20T01:31:39.254Z,5.53
2022-08-20T01:34:11.418Z,5.57
2022-08-20T01:36:49.288Z,4.85
2022-08-20T01:39:22.272Z,5.95
2022-08-20T01:41:51.941Z,6.03
2022-08-20T01:44:22.897Z,5.55
2022-08-20T01:46:57.857Z,5.15
2022-08-20T01:49:30.201Z,5.32
2022-08-20T01:52:05.513Z,6.07
2022-08-20T01:54:34.118Z,5.40
2022-08-20T01:57:14.671Z,5.40
2022-08-20T01:59:43.150Z,5.32
2022-08-20T02:02:12.732Z,5.10
2022-08-20T02:04:41.740Z,5.60
2022-08-20T02:07:17.017Z,6.03
2022-08-20T02:09:45.810Z,6.30
2022-08-20T02:12:14.453Z,5.50
2022-08-20T02:14:48.826Z,5.50
2022-08-20T02:17:16.241Z,5.82
2022-08-20T02:20:00.394Z,6.25
2022-08-20T02:22:45.797Z,5.65
2022-08-20T02:25:19.492Z,6.47
2022-08-20T02:27:48.893Z,6.90
2022-08-20T02:30:35.741Z,6.45
2022-08-20T02:33:06.485Z,6.18
2022-08-20T02:35:35.542Z,5.35
2022-08-20T02:38:03.589Z,5.78
2022-08-20T02:40:31.659Z,6.20
2022-08-20T02:43:02.720Z,5.53
2022-08-20T02:45:37.255Z,5.55
2022-08-20T02:48:05.507Z,5.72
2022-08-20T02:50:32.529Z,5.50
2022-08-20T02:52:59.525Z,5.25
2022-08-20T02:55:27.548Z,5.70
2022-08-20T02:57:57.925Z,5.97
2022-08-20T03:00:28.915Z,5.63
2022-08-20T03:02:59.447Z,6.05
2022-08-20T03:05:26.558Z,6.03
2022-08-20T03:07:56.405Z,5.93
2022-08-20T03:10:33.947Z,6.78
2022-08-20T03:13:02.664Z,6.65
2022-08-20T03:15:32.525Z,5.40
2022-08-20T03:18:01.031Z,6.88
2022-08-20T03:20:29.890Z,6.22
2022-08-20T03:22:57.447Z,6.10
2022-08-20T03:25:24.655Z,6.05
2022-08-20T03:27:54.593Z,6.20
2022-08-20T03:30:25.310Z,6.32
2022-08-20T03:32:53.595Z,6.18
2022-08-20T03:35:24.070Z,6.40
2022-08-20T03:37:51.130Z,6.53
2022-08-20T03:40:24.559Z,5.43
2022-08-20T03:42:52.718Z,6.50
2022-08-20T03:45:21.912Z,6.63
2022-08-20T03:47:51.781Z,6.05
2022-08-20T03:50:23.845Z,6.70
2022-08-20T03:52:55.018Z,6.15
2022-08-20T03:55:23.969Z,5.97
2022-08-20T03:57:58.198Z,6.20
2022-08-20T04:00:38.636Z,6.80
2022-08-20T04:03:08.357Z,5.63
2022-08-20T04:05:40.801Z,5.97
2022-08-20T04:08:21.399Z,6.13
2022-08-20T04:10:50.747Z,6.00
2022-08-20T04:13:21.032Z,6.10
2022-08-20T04:15:53.547Z,6.25
2022-08-20T04:18:24.071Z,5.72
2022-08-20T04:20:52.709Z,6.25
2022-08-20T04:23:21.367Z,6.15
2022-08-20T04:25:48.701Z,6.60
2022-08-20T04:28:27.240Z,6.85
2022-08-20T04:31:00.372Z,6.32
2022-08-20T04:33:33.288Z,5.95
2022-08-20T04:36:05.573Z,5.40
2022-08-20T04:38:47.807Z,6.30
2022-08-20T04:41:22.592Z,6.25
2022-08-20T04:43:54.176Z,6.00
2022-08-20T04:46:25.593Z,6.65
2022-08-20T04:48:53.303Z,5.70
2022-08-20T04:51:22.998Z,6.32
2022-08-20T04:53:53.508Z,5.95
2022-08-20T04:56:28.709Z,6.47
2022-08-20T04:58:59.054Z,5.85
2022-08-20T05:01:27.510Z,6.75
2022-08-20T05:03:57.267Z,6.63
2022-08-20T05:06:29.726Z,6.63
2022-08-20T05:08:59.236Z,6.97
2022-08-20T05:11:34.519Z,6.15
2022-08-20T05:14:11.404Z,6.63
2022-08-20T05:16:40.438Z,6.68
2022-08-20T05:19:12.609Z,6.20
2022-08-20T05:21:40.545Z,7.55
2022-08-20T05:24:08.463Z,7.07
2022-08-20T05:26:35.969Z,6.63
2022-08-20T05:29:05.311Z,7.10
2022-08-20T05:31:33.806Z,6.80
2022-08-20T05:34:10.460Z,6.65
2022-08-20T05:36:49.454Z,6.90
2022-08-20T05:39:18.416Z,7.63
2022-08-20T05:41:45.443Z,7.15
2022-08-20T05:44:14.731Z,7.32
2022-08-20T05:46:44.444Z,7.43
2022-08-20T05:49:16.383Z,7.25
2022-08-20T05:51:44.114Z,7.07
2022-08-20T05:54:11.555Z,6.80
2022-08-20T05:56:38.650Z,6.85
2022-08-20T05:59:08.259Z,6.68
2022-08-20T06:01:38.254Z,6.70
2022-08-20T06:04:26.996Z,6.47
2022-08-20T06:07:06.489Z,7.20
2022-08-20T06:09:36.407Z,7.40
2022-08-20T06:12:07.834Z,7.00
2022-08-20T06:14:35.711Z,6.95
2022-08-20T06:17:17.325Z,7.07
2022-08-20T06:19:47.058Z,7.30
2022-08-20T06:22:18.812Z,6.60
2022-08-20T06:24:51.594Z,6.45
2022-08-20T06:27:19.145Z,7.20
2022-08-20T06:29:46.648Z,7.57
2022-08-20T06:32:15.251Z,7.95
2022-08-20T06:34:49.808Z,7.38
2022-08-20T06:37:31.442Z,7.57
2022-08-20T06:40:06.963Z,6.78
2022-08-20T06:42:34.094Z,7.28
2022-08-20T06:45:05.086Z,7.32
2022-08-20T06:47:32.714Z,7.43
2022-08-20T06:49:59.926Z,7.28
2022-08-20T06:52:51.889Z,6.78
2022-08-20T06:55:15.943Z,7.40
2022-08-20T06:57:45.042Z,7.03
2022-08-20T07:00:18.571Z,7.35
2022-08-20T07:02:47.126Z,7.20
2022-08-20T07:05:14.183Z,7.10
2022-08-20T07:07:49.643Z,7.95
2022-08-20T07:10:20.835Z,6.65
2022-08-20T07:12:50.136Z,8.10
2022-08-20T07:15:19.869Z,7.78
2022-08-20T07:18:01.627Z,7.00
2022-08-20T07:20:30.320Z,6.93
2022-08-20T07:22:57.578Z,7.35
2022-08-20T07:25:24.989Z,7.75
2022-08-20T07:27:52.428Z,7.47
2022-08-20T07:30:55.850Z,7.90
2022-08-20T07:33:29.298Z,7.05
2022-08-20T07:36:04.129Z,7.22
2022-08-20T07:38:32.908Z,8.52
2022-08-20T07:41:07.872Z,7.15
2022-08-20T07:43:35.196Z,7.28
2022-08-20T07:46:08.602Z,7.70
2022-08-20T07:48:42.003Z,6.65
2022-08-20T07:51:10.866Z,7.35
2022-08-20T07:53:40.338Z,7.00
2022-08-20T07:56:11.570Z,6.20
2022-08-20T07:58:50.035Z,7.00
2022-08-20T08:01:31.891Z,6.90
2022-08-20T08:04:00.730Z,6.35
2022-08-20T08:06:31.310Z,6.65
2022-08-20T08:09:06.269Z,6.82
2022-08-20T08:11:38.070Z,7.63
2022-08-20T08:14:09.830Z,6.78
2022-08-20T08:16:39.890Z,7.15
2022-08-20T08:19:09.896Z,6.75
2022-08-20T08:21:37.089Z,7.05
2022-08-20T08:24:04.634Z,6.90
2022-08-20T08:26:31.644Z,7.05
2022-08-20T08:28:58.746Z,6.57
2022-08-20T08:31:26.403Z,5.80
2022-08-20T08:33:53.392Z,6.38
2022-08-20T08:36:20.374Z,6.80
2022-08-20T08:38:47.757Z,7.65
2022-08-20T08:41:34.075Z,7.25
2022-08-20T08:44:27.462Z,6.22
2022-08-20T08:47:13.868Z,7.03
2022-08-20T08:49:40.860Z,6.43
2022-08-20T08:52:24.477Z,6.03
2022-08-20T08:54:58.053Z,6.22
2022-08-20T08:57:26.732Z,5.75
2022-08-20T09:00:19.345Z,6.45
2022-08-20T09:03:11.355Z,6.13
2022-08-20T09:05:52.260Z,6.13
2022-08-20T09:08:43.674Z,5.97
2022-08-20T09:11:10.824Z,6.30
2022-08-20T09:13:37.868Z,6.05
2022-08-20T09:16:04.974Z,5.82
2022-08-20T09:18:32.464Z,6.07
2022-08-20T09:20:59.423Z,6.28
2022-08-20T09:23:26.421Z,5.85
2022-08-20T09:25:53.380Z,7.32
2022-08-20T09:28:20.432Z,5.50
2022-08-20T09:30:48.432Z,7.40
2022-08-20T09:33:15.961Z,6.50
2022-08-20T09:35:44.872Z,5.35
2022-08-20T09:38:12.338Z,6.80
2022-08-20T09:40:39.897Z,6.20
2022-08-20T09:43:07.774Z,6.65
2022-08-20T09:45:35.948Z,5.35
2022-08-20T09:48:03.338Z,5.80
2022-08-20T09:50:35.107Z,5.63
2022-08-20T09:53:05.488Z,5.80
2022-08-20T09:55:42.266Z,6.18
2022-08-20T09:58:52.886Z,5.75
2022-08-20T10:01:22.819Z,6.05
2022-08-20T10:03:50.976Z,5.82
2022-08-20T10:06:20.418Z,5.47
2022-08-20T10:08:49.561Z,5.82
2022-08-20T10:11:17.952Z,5.63
2022-08-20T10:13:45.786Z,6.15
2022-08-20T10:16:12.901Z,6.63
2022-08-20T10:18:39.946Z,6.75
2022-08-20T10:21:12.654Z,5.80
2022-08-20T10:23:39.658Z,5.53
2022-08-20T10:26:09.329Z,4.90
2022-08-20T10:28:36.474Z,4.88
2022-08-20T10:31:07.275Z,5.82
2022-08-20T10:33:36.102Z,5.63
2022-08-20T10:36:15.971Z,5.10
2022-08-20T10:38:44.664Z,5.32
2022-08-20T10:41:11.706Z,5.72
2022-08-20T10:43:38.754Z,5.43
2022-08-20T10:46:06.088Z,5.78
2022-08-20T10:48:33.369Z,5.07
2022-08-20T10:51:00.751Z,5.07
2022-08-20T10:53:27.766Z,5.63
2022-08-20T10:55:56.505Z,5.15
2022-08-20T10:58:24.191Z,5.68
2022-08-20T11:00:51.985Z,5.32
2022-08-20T11:03:19.927Z,4.68
2022-08-20T11:05:47.669Z,5.50
2022-08-20T11:08:14.620Z,4.90
2022-08-20T11:11:00.376Z,6.05
2022-08-20T11:13:27.362Z,4.78
2022-08-20T11:15:54.324Z,5.63
2022-08-20T11:18:21.362Z,4.82
2022-08-20T11:20:48.727Z,5.50
2022-08-20T11:23:15.700Z,5.30
2022-08-20T11:25:42.746Z,5.40
2022-08-20T11:28:10.119Z,4.97
2022-08-20T11:30:37.676Z,4.82
2022-08-20T11:33:05.672Z,5.65
2022-08-20T11:35:43.506Z,4.80
2022-08-20T11:38:15.880Z,5.28
2022-08-20T11:40:42.847Z,5.38
2022-08-20T11:43:18.011Z,5.22
2022-08-20T11:45:54.452Z,5.60
2022-08-20T11:48:22.097Z,5.53
2022-08-20T11:50:49.703Z,4.70
2022-08-20T11:53:16.834Z,4.72
2022-08-20T11:55:44.719Z,5.65
2022-08-20T11:58:12.655Z,5.20
2022-08-20T12:00:39.786Z,4.82
2022-08-20T12:03:09.593Z,5.45
2022-08-20T12:05:39.660Z,5.53
2022-08-20T12:08:06.862Z,5.75
2022-08-20T12:10:34.219Z,5.03
2022-08-20T12:13:01.712Z,5.35
2022-08-20T12:15:29.797Z,5.20
2022-08-20T12:17:56.912Z,5.00
2022-08-20T12:20:25.308Z,4.80
2022-08-20T12:22:54.024Z,5.45
2022-08-20T12:25:21.389Z,4.90
2022-08-20T12:27:48.410Z,5.70
2022-08-20T12:30:20.308Z,5.20
2022-08-20T12:32:47.945Z,5.30
2022-08-20T12:35:17.593Z,5.45
2022-08-20T12:37:45.883Z,5.22
2022-08-20T12:40:24.508Z,6.10
2022-08-20T12:43:03.434Z,4.97
2022-08-20T12:45:31.650Z,5.53
2022-08-20T12:48:08.011Z,5.15
2022-08-20T12:50:37.435Z,5.32
2022-08-20T12:53:04.920Z,6.10
2022-08-20T12:55:33.043Z,5.07
2022-08-20T12:58:02.799Z,5.22
2022-08-20T13:00:44.373Z,5.15
2022-08-20T13:03:15.631Z,5.00
2022-08-20T13:05:42.780Z,4.57
2022-08-20T13:08:12.384Z,4.43
2022-08-20T13:10:46.979Z,5.50
2022-08-20T13:13:17.600Z,5.25
2022-08-20T13:15:47.661Z,5.07
2022-08-20T13:18:14.641Z,4.82
2022-08-20T13:20:41.621Z,5.50
2022-08-20T13:23:08.572Z,5.20
2022-08-20T13:25:35.551Z,5.53
2022-08-20T13:28:05.051Z,5.78
2022-08-20T13:30:34.425Z,4.82
2022-08-20T13:33:01.795Z,5.75
2022-08-20T13:35:29.595Z,4.63
2022-08-20T13:37:56.864Z,5.07
2022-08-20T13:40:24.191Z,4.82
2022-08-20T13:42:51.175Z,4.60
2022-08-20T13:45:18.346Z,5.10
2022-08-20T13:47:45.534Z,5.30
2022-08-20T13:50:19.121Z,4.68
2022-08-20T13:52:46.676Z,4.88
2022-08-20T13:55:19.484Z,5.22
2022-08-20T13:57:46.744Z,5.10
2022-08-20T14:00:31.011Z,5.20
2022-08-20T14:03:03.287Z,5.45
2022-08-20T14:05:31.901Z,5.63
2022-08-20T14:08:19.001Z,4.65
2022-08-20T14:10:49.091Z,4.75
2022-08-20T14:13:21.361Z,5.72
2022-08-20T14:15:48.464Z,6.18
2022-08-20T14:18:16.690Z,4.40
2022-08-20T14:20:45.291Z,5.82
2022-08-20T14:23:13.315Z,4.97
2022-08-20T14:25:40.488Z,5.40
2022-08-20T14:28:18.233Z,5.55
2022-08-20T14:30:46.669Z,5.70
2022-08-20T14:33:19.519Z,5.32
2022-08-20T14:35:46.507Z,5.07
2022-08-20T14:38:13.522Z,5.57
2022-08-20T14:40:40.679Z,4.90
2022-08-20T14:43:07.644Z,4.80
2022-08-20T14:45:34.666Z,5.38
2022-08-20T14:48:01.713Z,5.47
2022-08-20T14:50:33.307Z,5.60
2022-08-20T14:53:01.550Z,4.88
2022-08-20T14:55:37.472Z,5.45
2022-08-20T14:58:12.715Z,4.78
2022-08-20T15:00:40.743Z,5.15
2022-08-20T15:03:08.006Z,5.30
2022-08-20T15:05:39.543Z,5.10
2022-08-20T15:08:08.154Z,5.30
2022-08-20T15:10:38.829Z,5.07
2022-08-20T15:13:06.070Z,4.90
2022-08-20T15:15:33.119Z,4.93
2022-08-20T15:18:00.823Z,8.25
2022-08-20T15:20:31.736Z,4.90
2022-08-20T15:22:59.612Z,5.45
2022-08-20T15:25:36.873Z,5.35
2022-08-20T15:28:08.308Z,5.53
2022-08-20T15:30:37.621Z,5.32
2022-08-20T15:33:04.665Z,5.50
2022-08-20T15:35:31.848Z,5.47
2022-08-20T15:37:59.404Z,5.47
2022-08-20T15:40:30.490Z,5.13
2022-08-20T15:42:59.598Z,5.10
2022-08-20T15:45:27.304Z,5.15
2022-08-20T15:48:15.467Z,5.35
2022-08-20T15:51:38.029Z,5.30
2022-08-20T15:54:27.544Z,4.80
2022-08-20T15:57:31.541Z,4.68
2022-08-20T16:00:13.832Z,4.97
2022-08-20T16:03:25.027Z,5.80
2022-08-20T16:06:03.034Z,4.82
2022-08-20T16:09:03.153Z,4.53
2022-08-20T16:11:54.364Z,5.00
2022-08-20T16:14:34.811Z,6.00
2022-08-20T16:17:11.335Z,4.70
2022-08-20T16:20:13.046Z,5.60
2022-08-20T16:22:46.048Z,4.22
2022-08-20T16:25:15.495Z,5.05
2022-08-20T16:28:25.427Z,4.97
2022-08-20T16:31:03.741Z,5.45
2022-08-20T16:33:46.431Z,4.85
2022-08-20T16:36:34.167Z,5.07
2022-08-20T16:39:28.376Z,4.53
2022-08-20T16:41:57.265Z,5.00
2022-08-20T16:44:42.470Z,5.05
2022-08-20T16:47:25.875Z,5.00
2022-08-20T16:50:07.295Z,5.25
2022-08-20T16:52:34.339Z,4.82
2022-08-20T16:55:01.302Z,5.30
2022-08-20T16:57:29.191Z,5.53
2022-08-20T17:00:26.138Z,5.10
2022-08-20T17:03:01.187Z,5.80
2022-08-20T17:05:42.953Z,4.70
2022-08-20T17:08:22.921Z,5.63
2022-08-20T17:11:05.870Z,5.05
2022-08-20T17:13:37.080Z,5.05
2022-08-20T17:16:21.166Z,5.43
2022-08-20T17:18:53.767Z,5.03
2022-08-20T17:21:23.777Z,6.20
2022-08-20T17:23:58.814Z,5.30
2022-08-20T17:26:50.456Z,5.10
2022-08-20T17:29:26.251Z,5.90
2022-08-20T17:31:57.603Z,5.10
2022-08-20T17:34:42.308Z,6.20
2022-08-20T17:37:21.409Z,5.43
2022-08-20T17:39:55.980Z,5.55
2022-08-20T17:42:26.678Z,5.38
2022-08-20T17:45:16.126Z,5.28
2022-08-20T17:47:44.091Z,5.55
2022-08-20T17:50:18.757Z,5.20
2022-08-20T17:53:04.743Z,5.32
2022-08-20T17:55:35.403Z,6.07
2022-08-20T17:58:06.546Z,4.95
2022-08-20T18:00:33.598Z,5.38
2022-08-20T18:03:30.006Z,5.03
2022-08-20T18:06:26.211Z,4.68
2022-08-20T18:09:13.055Z,4.25
2022-08-20T18:11:49.139Z,3.78
2022-08-20T18:14:40.549Z,4.53
2022-08-20T18:18:07.074Z,4.63
2022-08-20T18:20:51.943Z,4.28
2022-08-20T18:23:28.779Z,4.30
2022-08-20T18:26:24.041Z,5.07
2022-08-20T18:29:09.026Z,4.50
2022-08-20T18:31:48.947Z,4.55
2022-08-20T18:34:35.567Z,4.95
2022-08-20T18:37:21.287Z,4.07
2022-08-20T18:39:50.551Z,4.60
2022-08-20T18:42:30.919Z,4.32
2022-08-20T18:44:58.799Z,4.25
2022-08-20T18:47:34.624Z,4.85
2022-08-20T18:50:16.692Z,4.30
2022-08-20T18:53:06.869Z,4.50
2022-08-20T18:55:44.703Z,4.03
2022-08-20T18:58:28.090Z,4.15
2022-08-20T19:00:55.123Z,3.90
2022-08-20T19:03:45.877Z,3.83
2022-08-20T19:06:15.806Z,3.28
2022-08-20T19:09:00.148Z,3.60
2022-08-20T19:12:22.509Z,3.92
2022-08-20T19:15:03.612Z,3.03
2022-08-20T19:18:16.299Z,3.55
2022-08-20T19:20:57.779Z,3.42
2022-08-20T19:23:29.036Z,3.80
2022-08-20T19:26:25.110Z,3.95
2022-08-20T19:29:15.856Z,3.15
2022-08-20T19:31:43.643Z,3.85
2022-08-20T19:34:22.907Z,3.83
2022-08-20T19:37:10.129Z,3.35
2022-08-20T19:39:53.005Z,3.45
2022-08-20T19:42:33.266Z,3.83
2022-08-20T19:45:06.070Z,4.00
2022-08-20T19:47:54.359Z,3.55
2022-08-20T19:50:42.301Z,3.97
2022-08-20T19:53:30.102Z,3.47
2022-08-20T19:56:09.731Z,3.35
2022-08-20T19:58:37.279Z,3.35
2022-08-20T20:01:20.266Z,3.10
2022-08-20T20:04:16.324Z,4.18
2022-08-20T20:06:47.475Z,3.40
2022-08-20T20:09:22.280Z,4.00
2022-08-20T20:12:02.776Z,3.85
2022-08-20T20:14:34.201Z,3.35
2022-08-20T20:17:04.531Z,3.80
2022-08-20T20:19:31.790Z,3.00
2022-08-20T20:22:19.084Z,3.08
2022-08-20T20:24:58.287Z,3.47
2022-08-20T20:27:27.626Z,3.38
2022-08-20T20:30:12.572Z,2.72
2022-08-20T20:32:50.140Z,3.25
2022-08-20T20:35:31.496Z,3.10
2022-08-20T20:38:09.735Z,3.20
2022-08-20T20:40:49.520Z,3.10
2022-08-20T20:43:26.824Z,2.60
2022-08-20T20:46:04.376Z,3.05
2022-08-20T20:48:46.841Z,3.55
2022-08-20T20:51:36.316Z,3.13
2022-08-20T20:54:21.237Z,3.50
2022-08-20T20:57:19.590Z,3.08
2022-08-20T21:00:13.861Z,3.30
2022-08-20T21:02:43.251Z,2.90
2022-08-20T21:05:12.517Z,3.67
2022-08-20T21:08:02.976Z,2.95
2022-08-20T21:10:34.744Z,3.10
2022-08-20T21:13:05.060Z,4.05
2022-08-20T21:15:33.045Z,3.58
2022-08-20T21:18:03.815Z,3.70
2022-08-20T21:20:31.835Z,3.85
2022-08-20T21:22:59.061Z,4.03
2022-08-20T21:25:29.596Z,3.75
2022-08-20T21:27:57.143Z,3.63
2022-08-20T21:30:25.164Z,3.25
2022-08-20T21:32:53.294Z,3.03
2022-08-20T21:35:21.371Z,3.88
2022-08-20T21:37:48.401Z,3.72
2022-08-20T21:40:21.434Z,2.97
2022-08-20T21:42:49.338Z,3.50
2022-08-20T21:45:18.513Z,3.65
2022-08-20T21:47:46.841Z,3.80
2022-08-20T21:50:19.613Z,3.03
2022-08-20T21:52:58.036Z,4.05
2022-08-20T21:55:33.058Z,3.47
2022-08-20T21:58:04.458Z,3.17
2022-08-20T22:00:53.054Z,3.22
2022-08-20T22:03:23.197Z,3.55
2022-08-20T22:05:51.372Z,3.70
2022-08-20T22:08:19.914Z,3.08
2022-08-20T22:10:47.381Z,3.45
2022-08-20T22:13:15.958Z,3.90
2022-08-20T22:15:43.011Z,3.38
2022-08-20T22:18:10.030Z,3.55
2022-08-20T22:20:37.171Z,3.33
2022-08-20T22:23:05.484Z,3.60
2022-08-20T22:25:32.972Z,3.67
2022-08-20T22:28:00.424Z,3.70
2022-08-20T22:30:29.000Z,3.47
2022-08-20T22:33:05.458Z,3.83
2022-08-20T22:35:34.353Z,3.17
2022-08-20T22:38:02.596Z,3.97
2022-08-20T22:40:29.695Z,3.67
2022-08-20T22:42:56.931Z,3.92
2022-08-20T22:45:24.221Z,3.83
2022-08-20T22:47:51.265Z,3.88
2022-08-20T22:50:19.443Z,3.30
2022-08-20T22:52:46.474Z,3.92
2022-08-20T22:55:13.920Z,3.63
2022-08-20T22:57:41.613Z,3.50
2022-08-20T23:00:13.576Z,3.90
2022-08-20T23:02:43.240Z,3.50
2022-08-20T23:05:17.148Z,4.28
2022-08-20T23:07:44.197Z,3.45
2022-08-20T23:10:11.650Z,4.38
2022-08-20T23:12:38.864Z,3.88
2022-08-20T23:15:07.650Z,3.35
2022-08-20T23:17:35.346Z,4.50
2022-08-20T23:20:02.590Z,3.40
2022-08-20T23:22:29.916Z,3.45
2022-08-20T23:25:00.395Z,3.75
2022-08-20T23:27:28.270Z,3.70
2022-08-20T23:29:55.368Z,3.90
2022-08-20T23:32:22.332Z,3.67
2022-08-20T23:34:49.380Z,3.45
2022-08-20T23:37:21.102Z,4.07
2022-08-20T23:39:49.878Z,4.20
2022-08-20T23:42:17.246Z,3.70
2022-08-20T23:44:45.384Z,3.97
2022-08-20T23:47:18.019Z,3.97
2022-08-20T23:49:45.320Z,3.83
2022-08-20T23:52:12.529Z,4.60
2022-08-20T23:54:39.556Z,4.00
2022-08-20T23:57:08.213Z,3.78
2022-08-20T23:59:35.811Z,4.30
